Nashville, Tennessee
Traffic Map
Current Weather Conditions
Nashville, Tennessee
Broken Clouds
Broken Clouds
27°
Feels Like: 27°
Wind Chill: 27° Ceiling: 20000
Heat Index: 27° Visibility: 10mi
Dew Point: 14° Wind: 0mph
Humidity: 47% Direction: ° ()
Pressure: 30.08in Gusts: 0mph
Raw Report DataKBNA 251553Z 00000KT 10SM FEW045 SCT160 BKN200 BKN250 27/14 A3008 RMK AO2 SLP180 T02670144
Traffic Incident Summary
Active as of:
Severity:
Category:
InformationThere was an issue retrieving the traffic information for this location. Please try a different location or try again shortly.
Advertisements
Track Severe Weather on mobile